createdAt,value
2022-09-28T00:01:21.310Z,70.23
2022-09-28T00:03:51.679Z,69.49
2022-09-28T00:06:24.583Z,69.27
2022-09-28T00:08:52.643Z,69.68
2022-09-28T00:11:22.354Z,68.99
2022-09-28T00:13:52.881Z,69.20
2022-09-28T00:16:30.279Z,68.29
2022-09-28T00:18:57.719Z,68.42
2022-09-28T00:21:30.023Z,68.13
2022-09-28T00:24:12.974Z,68.16
2022-09-28T00:27:00.732Z,66.74
2022-09-28T00:29:35.008Z,66.43
2022-09-28T00:32:05.494Z,66.96
2022-09-28T00:34:37.515Z,68.03
2022-09-28T00:37:09.944Z,66.62
2022-09-28T00:39:41.527Z,67.83
2022-09-28T00:42:27.995Z,66.81
2022-09-28T00:44:58.530Z,68.45
2022-09-28T00:47:52.066Z,68.32
2022-09-28T00:50:35.434Z,68.04
2022-09-28T00:53:26.565Z,67.35
2022-09-28T00:56:07.625Z,67.94
2022-09-28T00:58:43.841Z,66.93
2022-09-28T01:01:12.805Z,67.41
2022-09-28T01:03:45.303Z,67.76
2022-09-28T01:06:31.209Z,68.22
2022-09-28T01:08:59.501Z,67.86
2022-09-28T01:11:27.918Z,67.04
2022-09-28T01:13:58.001Z,67.45
2022-09-28T01:17:04.441Z,66.88
2022-09-28T01:19:48.986Z,66.79
2022-09-28T01:22:34.345Z,67.02
2022-09-28T01:25:28.736Z,65.90
2022-09-28T01:28:14.541Z,67.22
2022-09-28T01:31:13.163Z,66.94
2022-09-28T01:33:55.711Z,67.68
2022-09-28T01:36:30.753Z,67.23
2022-09-28T01:39:09.074Z,67.26
2022-09-28T01:41:40.387Z,65.52
2022-09-28T01:44:14.978Z,65.42
2022-09-28T01:46:48.347Z,65.82
2022-09-28T01:49:28.127Z,64.90
2022-09-28T01:52:24.604Z,65.23
2022-09-28T01:55:27.044Z,64.31
2022-09-28T01:58:20.259Z,64.96
2022-09-28T02:00:58.489Z,63.44
2022-09-28T02:03:39.171Z,63.51
2022-09-28T02:06:34.310Z,63.06
2022-09-28T02:09:21.798Z,63.60
2022-09-28T02:11:59.722Z,64.50
2022-09-28T02:14:28.845Z,63.79
2022-09-28T02:16:58.084Z,64.44
2022-09-28T02:19:29.721Z,64.38
2022-09-28T02:22:23.270Z,65.12
2022-09-28T02:25:03.436Z,65.80
2022-09-28T02:27:45.549Z,64.08
2022-09-28T02:30:13.215Z,64.38
2022-09-28T02:32:45.301Z,63.41
2022-09-28T02:35:17.061Z,64.19
2022-09-28T02:37:46.060Z,62.46
2022-09-28T02:40:20.514Z,62.08
2022-09-28T02:43:21.113Z,62.49
2022-09-28T02:46:04.609Z,63.01
2022-09-28T02:49:30.097Z,63.11
2022-09-28T02:52:16.662Z,64.50
2022-09-28T02:55:38.131Z,65.10
2022-09-28T02:58:34.016Z,64.36
2022-09-28T03:01:38.667Z,64.57
2022-09-28T03:04:46.434Z,64.40
2022-09-28T03:07:35.027Z,62.90
2022-09-28T03:10:44.072Z,62.94
2022-09-28T03:13:13.688Z,63.44
2022-09-28T03:15:46.445Z,64.76
2022-09-28T03:18:18.032Z,63.87
2022-09-28T03:20:45.333Z,64.43
2022-09-28T03:23:24.337Z,65.09
2022-09-28T03:25:55.021Z,65.78
2022-09-28T03:28:23.270Z,66.96
2022-09-28T03:30:55.802Z,65.48
2022-09-28T03:33:25.856Z,67.26
2022-09-28T03:35:55.917Z,67.57
2022-09-28T03:38:25.329Z,66.72
2022-09-28T03:40:57.701Z,66.72
2022-09-28T03:43:29.899Z,66.94
2022-09-28T03:46:00.199Z,65.24
2022-09-28T03:48:34.223Z,67.40
2022-09-28T03:51:07.112Z,65.23
2022-09-28T03:53:34.299Z,64.56
2022-09-28T03:56:14.031Z,66.26
2022-09-28T03:58:41.488Z,64.52
2022-09-28T04:01:16.418Z,63.47
2022-09-28T04:03:44.896Z,64.12
2022-09-28T04:06:13.186Z,64.58
2022-09-28T04:08:40.312Z,64.19
2022-09-28T04:11:07.601Z,63.94
2022-09-28T04:13:37.853Z,63.55
2022-09-28T04:16:07.501Z,63.88
2022-09-28T04:18:35.304Z,63.64
2022-09-28T04:21:10.524Z,67.08
2022-09-28T04:23:40.017Z,65.02
2022-09-28T04:26:13.296Z,64.80
2022-09-28T04:29:01.569Z,65.01
2022-09-28T04:31:37.518Z,64.56
2022-09-28T04:34:04.615Z,64.21
2022-09-28T04:36:31.821Z,64.20
2022-09-28T04:39:00.090Z,63.32
2022-09-28T04:41:29.703Z,62.38
2022-09-28T04:44:06.492Z,62.76
2022-09-28T04:46:33.969Z,62.26
2022-09-28T04:49:01.633Z,63.11
2022-09-28T04:51:31.962Z,63.59
2022-09-28T04:54:02.532Z,62.61
2022-09-28T04:56:29.682Z,64.35
2022-09-28T04:58:56.765Z,64.86
2022-09-28T05:01:24.440Z,63.79
2022-09-28T05:03:51.615Z,63.72
2022-09-28T05:06:18.848Z,63.87
2022-09-28T05:08:47.375Z,64.38
2022-09-28T05:11:15.502Z,64.55
2022-09-28T05:13:45.674Z,64.32
2022-09-28T05:16:16.359Z,64.28
2022-09-28T05:18:46.481Z,65.15
2022-09-28T05:21:19.689Z,64.77
2022-09-28T05:23:47.786Z,63.88
2022-09-28T05:26:15.233Z,64.19
2022-09-28T05:28:42.636Z,64.03
2022-09-28T05:31:09.876Z,64.48
2022-09-28T05:33:37.429Z,65.85
2022-09-28T05:36:04.861Z,65.45
2022-09-28T05:38:32.049Z,66.17
2022-09-28T05:41:02.051Z,64.44
2022-09-28T05:43:32.659Z,63.17
2022-09-28T05:46:00.613Z,65.12
2022-09-28T05:48:30.580Z,64.37
2022-09-28T05:51:00.851Z,63.55
2022-09-28T05:53:30.101Z,63.13
2022-09-28T05:56:00.848Z,62.26
2022-09-28T05:58:29.114Z,62.47
2022-09-28T06:00:56.968Z,62.12
2022-09-28T06:03:24.675Z,63.07
2022-09-28T06:05:54.494Z,62.36
2022-09-28T06:08:21.806Z,62.19
2022-09-28T06:10:49.527Z,62.20
2022-09-28T06:13:16.672Z,63.63
2022-09-28T06:15:46.821Z,62.28
2022-09-28T06:18:15.031Z,62.67
2022-09-28T06:20:43.335Z,63.22
2022-09-28T06:23:14.268Z,62.60
2022-09-28T06:25:43.769Z,63.94
2022-09-28T06:28:15.549Z,63.09
2022-09-28T06:30:45.215Z,64.19
2022-09-28T06:33:14.504Z,63.50
2022-09-28T06:35:42.307Z,63.09
2022-09-28T06:38:10.092Z,62.22
2022-09-28T06:40:37.490Z,62.94
2022-09-28T06:43:11.312Z,62.51
2022-09-28T06:45:39.127Z,62.69
2022-09-28T06:48:07.415Z,62.60
2022-09-28T06:50:38.298Z,61.88
2022-09-28T06:55:50.222Z,62.21
2022-09-28T06:58:20.827Z,62.64
2022-09-28T07:00:50.895Z,61.54
2022-09-28T07:03:21.694Z,60.89
2022-09-28T07:05:54.965Z,60.72
2022-09-28T07:08:28.754Z,59.47
2022-09-28T07:10:58.888Z,59.42
2022-09-28T07:13:49.045Z,59.60
2022-09-28T07:16:22.749Z,60.42
2022-09-28T07:18:52.838Z,59.57
2022-09-28T07:21:29.369Z,59.55
2022-09-28T07:23:57.504Z,59.35
2022-09-28T07:26:25.689Z,59.78
2022-09-28T07:28:55.074Z,57.43
2022-09-28T07:31:25.249Z,56.43
2022-09-28T07:33:54.053Z,52.98
2022-09-28T07:36:22.111Z,49.96
2022-09-28T07:38:51.680Z,53.71
2022-09-28T07:41:41.518Z,52.59
2022-09-28T07:44:08.596Z,54.00
2022-09-28T07:46:37.006Z,53.57
2022-09-28T07:49:09.939Z,55.21
2022-09-28T07:51:39.290Z,56.67
2022-09-28T07:54:06.687Z,56.51
2022-09-28T07:56:34.931Z,55.35
2022-09-28T07:59:01.917Z,53.94
2022-09-28T08:01:30.655Z,54.63
2022-09-28T08:03:57.703Z,49.29
2022-09-28T08:06:24.685Z,48.56
2022-09-28T08:08:52.921Z,45.78
2022-09-28T08:11:19.900Z,46.52
2022-09-28T08:13:47.490Z,47.63
2022-09-28T08:16:14.618Z,47.84
2022-09-28T08:18:41.799Z,48.17
2022-09-28T08:21:29.277Z,47.25
2022-09-28T08:23:56.907Z,45.85
2022-09-28T08:26:23.853Z,47.21
2022-09-28T08:28:51.307Z,44.34
2022-09-28T08:31:18.413Z,47.28
2022-09-28T08:33:53.795Z,46.23
2022-09-28T08:36:21.141Z,46.13
2022-09-28T08:38:50.670Z,47.01
2022-09-28T08:41:50.614Z,41.90
2022-09-28T08:44:24.119Z,43.69
2022-09-28T08:47:02.112Z,42.86
2022-09-28T08:49:41.928Z,44.82
2022-09-28T08:52:23.603Z,47.82
2022-09-28T08:54:56.733Z,47.59
2022-09-28T08:57:38.042Z,49.97
2022-09-28T09:00:11.089Z,49.23
2022-09-28T09:02:42.583Z,48.34
2022-09-28T09:05:20.738Z,45.31
2022-09-28T09:08:22.621Z,41.21
2022-09-28T09:11:02.750Z,40.05
2022-09-28T09:13:39.077Z,42.96
2022-09-28T09:16:40.202Z,38.47
2022-09-28T09:19:33.012Z,35.71
2022-09-28T09:22:28.918Z,38.09
2022-09-28T09:25:21.446Z,41.47
2022-09-28T09:28:16.413Z,41.98
2022-09-28T09:31:22.979Z,44.34
2022-09-28T09:34:09.391Z,47.01
2022-09-28T09:37:04.741Z,46.45
2022-09-28T09:40:11.626Z,46.94
2022-09-28T09:42:56.763Z,48.18
2022-09-28T09:45:49.068Z,47.81
2022-09-28T09:48:31.037Z,46.85
2022-09-28T09:51:04.803Z,48.48
2022-09-28T09:53:47.392Z,48.25
2022-09-28T09:56:40.534Z,48.71
2022-09-28T09:59:27.555Z,49.36
2022-09-28T10:01:55.952Z,50.05
2022-09-28T10:04:29.882Z,50.27
2022-09-28T10:07:08.484Z,50.49
2022-09-28T10:09:45.793Z,51.03
2022-09-28T10:12:19.472Z,53.98
2022-09-28T10:14:50.053Z,51.25
2022-09-28T10:17:19.843Z,50.20
2022-09-28T10:19:46.916Z,47.69
2022-09-28T10:22:22.267Z,47.90
2022-09-28T10:24:58.454Z,42.27
2022-09-28T10:27:31.862Z,41.28
2022-09-28T10:30:08.240Z,39.49
2022-09-28T10:32:47.696Z,35.91
2022-09-28T10:35:40.039Z,36.35
2022-09-28T10:38:18.906Z,34.81
2022-09-28T10:40:50.915Z,36.28
2022-09-28T10:43:38.475Z,34.16
2022-09-28T10:46:21.376Z,34.19
2022-09-28T10:48:56.630Z,36.48
2022-09-28T10:51:43.467Z,34.59
2022-09-28T10:54:22.827Z,34.03
2022-09-28T10:56:51.376Z,35.98
2022-09-28T10:59:30.449Z,35.15
2022-09-28T11:02:08.409Z,38.40
2022-09-28T11:04:49.484Z,36.78
2022-09-28T11:07:25.217Z,35.53
2022-09-28T11:09:54.931Z,34.55
2022-09-28T11:12:31.201Z,33.44
2022-09-28T11:15:05.849Z,35.01
2022-09-28T11:17:42.107Z,38.92
2022-09-28T11:20:43.019Z,35.51
2022-09-28T11:23:31.417Z,38.71
2022-09-28T11:26:09.560Z,42.01
2022-09-28T11:28:39.129Z,42.29
2022-09-28T11:31:08.040Z,43.00
2022-09-28T11:33:41.281Z,36.95
2022-09-28T11:36:14.285Z,36.58
2022-09-28T11:39:17.946Z,34.62
2022-09-28T11:42:11.005Z,33.97
2022-09-28T11:44:49.032Z,34.79
2022-09-28T11:48:01.918Z,34.41
2022-09-28T11:50:41.219Z,36.75
2022-09-28T11:53:47.666Z,38.56
2022-09-28T11:56:23.660Z,37.66
2022-09-28T11:59:04.106Z,39.01
2022-09-28T12:01:43.929Z,37.35
2022-09-28T12:04:42.589Z,37.76
2022-09-28T12:07:19.511Z,37.19
2022-09-28T12:09:54.566Z,37.90
2022-09-28T12:13:16.783Z,38.93
2022-09-28T12:16:27.261Z,40.03
2022-09-28T12:19:14.457Z,41.57
2022-09-28T12:21:45.064Z,43.64
2022-09-28T12:24:33.506Z,44.06
2022-09-28T12:27:39.049Z,44.80
2022-09-28T12:30:15.295Z,44.87
2022-09-28T12:32:59.113Z,47.19
2022-09-28T12:36:05.940Z,46.42
2022-09-28T12:38:38.730Z,46.09
2022-09-28T12:41:45.166Z,46.79
2022-09-28T12:44:52.145Z,46.96
2022-09-28T12:47:41.924Z,45.82
2022-09-28T12:50:41.740Z,46.80
2022-09-28T12:53:19.485Z,48.40
2022-09-28T12:56:10.338Z,48.00
2022-09-28T12:59:20.933Z,48.34
2022-09-28T13:02:39.337Z,47.42
2022-09-28T13:05:45.938Z,46.59
2022-09-28T13:08:48.126Z,47.08
2022-09-28T13:11:22.613Z,46.43
2022-09-28T13:14:17.992Z,45.73
2022-09-28T13:16:58.417Z,45.24
2022-09-28T13:19:47.181Z,43.64
2022-09-28T13:22:44.198Z,45.33
2022-09-28T13:25:19.520Z,44.25
2022-09-28T13:28:15.670Z,43.56
2022-09-28T13:30:45.142Z,44.79
2022-09-28T13:33:36.033Z,43.63
2022-09-28T13:36:24.938Z,45.35
2022-09-28T13:38:53.284Z,44.86
2022-09-28T13:41:39.839Z,46.98
2022-09-28T13:44:13.169Z,47.45
2022-09-28T13:47:20.613Z,47.73
2022-09-28T13:50:34.728Z,47.19
2022-09-28T13:53:16.675Z,46.69
2022-09-28T13:56:30.201Z,47.58
2022-09-28T13:59:29.891Z,47.93
2022-09-28T14:02:04.174Z,47.28
2022-09-28T14:05:25.160Z,46.63
2022-09-28T14:08:29.327Z,47.57
2022-09-28T14:11:17.719Z,49.16
2022-09-28T14:13:44.542Z,49.20
2022-09-28T14:16:33.436Z,48.44
2022-09-28T14:19:08.209Z,46.86
2022-09-28T14:22:19.317Z,47.15
2022-09-28T14:25:13.682Z,47.78
2022-09-28T14:28:23.431Z,51.27
2022-09-28T14:30:55.447Z,49.90
2022-09-28T14:33:29.518Z,50.87
2022-09-28T14:36:02.109Z,50.29
2022-09-28T14:39:05.266Z,47.98
2022-09-28T14:41:38.057Z,49.71
2022-09-28T14:44:12.096Z,47.95
2022-09-28T14:46:47.169Z,48.31
2022-09-28T14:49:20.285Z,50.10
2022-09-28T14:51:53.373Z,50.18
2022-09-28T14:54:27.348Z,49.89
2022-09-28T14:56:57.126Z,50.40
2022-09-28T14:59:24.923Z,51.75
2022-09-28T15:02:06.369Z,51.15
2022-09-28T15:04:40.124Z,52.66
2022-09-28T15:07:17.851Z,52.38
2022-09-28T15:09:48.421Z,52.91
2022-09-28T15:12:20.140Z,52.38
2022-09-28T15:15:02.670Z,53.44
2022-09-28T15:17:40.025Z,54.46
2022-09-28T15:20:32.256Z,53.85
2022-09-28T15:23:00.305Z,53.92
2022-09-28T15:25:32.917Z,52.10
2022-09-28T15:28:18.595Z,54.28
2022-09-28T15:30:46.250Z,55.17
2022-09-28T15:33:52.569Z,53.94
2022-09-28T15:36:42.043Z,53.79
2022-09-28T15:39:48.422Z,52.31
2022-09-28T15:42:17.640Z,53.92
2022-09-28T15:45:26.660Z,54.50
2022-09-28T15:48:17.206Z,54.30
2022-09-28T15:51:13.865Z,53.65
2022-09-28T15:54:09.388Z,53.51
2022-09-28T15:57:02.016Z,54.56
2022-09-28T15:59:34.830Z,54.61
2022-09-28T16:02:22.888Z,54.35
2022-09-28T16:04:55.255Z,56.65
2022-09-28T16:07:30.976Z,54.67
2022-09-28T16:10:13.480Z,53.78
2022-09-28T16:12:40.363Z,54.18
2022-09-28T16:15:42.585Z,56.86
2022-09-28T16:18:21.536Z,56.74
2022-09-28T16:20:52.605Z,58.08
2022-09-28T16:23:36.663Z,60.47
2022-09-28T16:26:11.713Z,60.00
2022-09-28T16:28:41.010Z,63.45
2022-09-28T16:31:29.695Z,74.42
2022-09-28T16:34:09.554Z,68.49
2022-09-28T16:36:49.016Z,68.34
2022-09-28T16:39:18.775Z,67.49
2022-09-28T16:41:55.701Z,67.97
2022-09-28T16:44:30.011Z,67.93
2022-09-28T16:47:00.248Z,68.16
2022-09-28T16:49:28.372Z,69.53
2022-09-28T16:51:55.470Z,69.29
2022-09-28T16:54:44.501Z,68.96
2022-09-28T16:57:14.845Z,68.76
2022-09-28T16:59:41.850Z,70.08
2022-09-28T17:02:45.281Z,69.84
2022-09-28T17:05:12.960Z,71.23
2022-09-28T17:07:40.548Z,72.49
2022-09-28T17:10:21.707Z,71.43
2022-09-28T17:12:48.805Z,72.73
2022-09-28T17:15:18.697Z,72.18
2022-09-28T17:17:49.434Z,71.33
2022-09-28T17:20:26.368Z,70.45
2022-09-28T17:22:53.765Z,69.77
2022-09-28T17:25:23.796Z,70.18
2022-09-28T17:27:54.791Z,69.33
2022-09-28T17:30:23.791Z,68.55
2022-09-28T17:32:52.927Z,68.38
2022-09-28T17:35:24.972Z,67.87
2022-09-28T17:37:53.400Z,67.43
2022-09-28T17:40:30.320Z,66.04
2022-09-28T17:42:59.139Z,66.81
2022-09-28T17:45:28.515Z,66.13
2022-09-28T17:47:56.256Z,66.10
2022-09-28T17:50:29.854Z,65.66
2022-09-28T17:53:02.901Z,65.42
2022-09-28T17:55:33.889Z,67.68
2022-09-28T17:58:20.697Z,67.13
2022-09-28T18:00:50.365Z,66.73
2022-09-28T18:03:25.169Z,67.37
2022-09-28T18:06:10.554Z,65.78
2022-09-28T18:08:37.862Z,66.57
2022-09-28T18:11:08.624Z,65.92
2022-09-28T18:13:35.707Z,65.89
2022-09-28T18:16:03.863Z,66.06
2022-09-28T18:18:37.963Z,65.74
2022-09-28T18:21:10.229Z,65.87
2022-09-28T18:23:39.050Z,65.10
2022-09-28T18:26:16.827Z,65.19
2022-09-28T18:28:43.893Z,65.11
2022-09-28T18:31:14.617Z,65.90
2022-09-28T18:33:44.125Z,65.84
2022-09-28T18:36:11.624Z,65.90
2022-09-28T18:38:39.179Z,64.87
2022-09-28T18:41:18.385Z,65.39
2022-09-28T18:43:51.209Z,65.69
2022-09-28T18:46:19.278Z,65.50
2022-09-28T18:48:49.767Z,64.66
2022-09-28T18:51:21.671Z,64.38
2022-09-28T18:53:50.057Z,64.42
2022-09-28T18:56:19.059Z,64.38
2022-09-28T18:58:51.730Z,64.08
2022-09-28T19:01:29.847Z,63.00
2022-09-28T19:04:07.406Z,64.88
2022-09-28T19:06:37.954Z,66.07
2022-09-28T19:09:05.089Z,65.41
2022-09-28T19:11:32.634Z,65.75
2022-09-28T19:13:59.864Z,65.60
2022-09-28T19:16:33.677Z,65.83
2022-09-28T19:19:02.822Z,64.62
2022-09-28T19:21:30.769Z,63.92
2022-09-28T19:24:04.101Z,65.00
2022-09-28T19:26:34.283Z,65.07
2022-09-28T19:29:02.861Z,64.70
2022-09-28T19:31:31.029Z,63.93
2022-09-28T19:33:58.852Z,64.35
2022-09-28T19:36:28.653Z,65.14
2022-09-28T19:39:03.501Z,64.93
2022-09-28T19:41:43.826Z,65.88
2022-09-28T19:44:25.451Z,64.04
2022-09-28T19:47:08.366Z,64.53
2022-09-28T19:49:39.202Z,65.14
2022-09-28T19:52:16.587Z,64.87
2022-09-28T19:54:55.801Z,65.07
2022-09-28T19:57:28.063Z,64.62
2022-09-28T20:00:00.803Z,63.62
2022-09-28T20:02:29.688Z,65.16
2022-09-28T20:04:56.906Z,65.81
2022-09-28T20:07:24.068Z,66.46
2022-09-28T20:09:52.010Z,65.38
2022-09-28T20:12:20.428Z,64.66
2022-09-28T20:14:47.616Z,65.76
2022-09-28T20:17:17.338Z,66.65
2022-09-28T20:19:44.441Z,66.53
2022-09-28T20:22:14.109Z,67.14
2022-09-28T20:24:41.201Z,66.94
2022-09-28T20:27:08.739Z,67.14
2022-09-28T20:29:35.810Z,66.20
2022-09-28T20:32:04.159Z,65.58
2022-09-28T20:34:31.716Z,64.96
2022-09-28T20:36:58.976Z,64.73
2022-09-28T20:39:28.781Z,65.56
2022-09-28T20:41:58.358Z,65.59
2022-09-28T20:44:28.659Z,67.20
2022-09-28T20:46:56.764Z,66.92
2022-09-28T20:49:28.823Z,65.90
2022-09-28T20:51:55.952Z,66.75
2022-09-28T20:54:25.719Z,65.49
2022-09-28T20:56:53.116Z,66.13
2022-09-28T20:59:22.965Z,65.61
2022-09-28T21:01:51.230Z,66.24
2022-09-28T21:04:21.101Z,65.54
2022-09-28T21:06:48.474Z,65.63
2022-09-28T21:09:15.634Z,65.51
2022-09-28T21:11:45.284Z,65.21
2022-09-28T21:14:24.066Z,64.87
2022-09-28T21:16:51.460Z,66.00
2022-09-28T21:19:20.659Z,65.77
2022-09-28T21:21:47.726Z,65.26
2022-09-28T21:24:15.057Z,65.85
2022-09-28T21:26:42.320Z,65.52
2022-09-28T21:29:10.682Z,66.19
2022-09-28T21:31:45.674Z,66.28
2022-09-28T21:34:19.470Z,65.03
2022-09-28T21:36:51.281Z,64.18
2022-09-28T21:39:20.169Z,64.85
2022-09-28T21:41:47.464Z,64.58
2022-09-28T21:44:17.200Z,64.07
2022-09-28T21:46:44.453Z,64.88
2022-09-28T21:49:12.717Z,64.51
2022-09-28T21:51:42.062Z,64.22
2022-09-28T21:54:09.396Z,64.56
2022-09-28T21:56:36.482Z,65.21
2022-09-28T21:59:03.582Z,65.12
2022-09-28T22:01:33.270Z,65.56
2022-09-28T22:04:00.657Z,65.54
2022-09-28T22:06:29.197Z,65.18
2022-09-28T22:08:56.929Z,64.62
2022-09-28T22:11:27.796Z,64.43
2022-09-28T22:13:59.332Z,65.94
2022-09-28T22:16:30.478Z,66.08
2022-09-28T22:18:59.311Z,65.34
2022-09-28T22:21:30.015Z,64.75
2022-09-28T22:24:04.761Z,64.98
2022-09-28T22:26:34.255Z,65.32
2022-09-28T22:29:08.957Z,65.49
2022-09-28T22:31:40.908Z,64.69
2022-09-28T22:34:13.698Z,65.27
2022-09-28T22:36:40.830Z,66.64
2022-09-28T22:39:08.113Z,67.52
2022-09-28T22:41:35.635Z,66.66
2022-09-28T22:44:02.819Z,66.19
2022-09-28T22:46:32.535Z,66.82
2022-09-28T22:49:02.234Z,65.31
2022-09-28T22:51:31.118Z,66.45
2022-09-28T22:53:58.699Z,66.31
2022-09-28T22:56:28.227Z,65.85
2022-09-28T22:58:55.543Z,65.48
2022-09-28T23:01:29.897Z,66.64
2022-09-28T23:03:58.369Z,66.60
2022-09-28T23:06:28.230Z,66.53
2022-09-28T23:08:55.318Z,65.67
2022-09-28T23:11:25.335Z,65.54
2022-09-28T23:13:58.326Z,64.69
2022-09-28T23:16:28.498Z,64.35
2022-09-28T23:18:56.749Z,66.28
2022-09-28T23:21:26.539Z,65.34
2022-09-28T23:24:01.610Z,65.29
2022-09-28T23:26:32.715Z,63.69
2022-09-28T23:29:02.830Z,65.35
2022-09-28T23:31:33.065Z,64.79
2022-09-28T23:34:03.783Z,64.92
2022-09-28T23:36:32.285Z,66.06
2022-09-28T23:38:59.791Z,65.23
2022-09-28T23:41:29.528Z,66.61
2022-09-28T23:43:56.819Z,66.45
2022-09-28T23:46:26.182Z,65.91
2022-09-28T23:48:53.415Z,65.88
2022-09-28T23:51:20.728Z,65.75
2022-09-28T23:53:47.892Z,65.17
2022-09-28T23:56:15.022Z,65.27
2022-09-28T23:58:45.473Z,66.13
